createdAt,value
2019-06-08T00:00:46.708Z,99.90
2019-06-08T00:03:16.586Z,99.90
2019-06-08T00:05:44.614Z,99.90
2019-06-08T00:08:13.051Z,99.90
2019-06-08T00:10:41.102Z,99.90
2019-06-08T00:13:09.256Z,99.90
2019-06-08T00:15:37.662Z,99.90
2019-06-08T00:18:05.645Z,99.90
2019-06-08T00:20:33.606Z,99.90
2019-06-08T00:23:01.489Z,99.90
2019-06-08T00:25:29.490Z,99.90
2019-06-08T00:27:57.913Z,99.90
2019-06-08T00:30:26.101Z,99.90
2019-06-08T00:32:54.265Z,99.90
2019-06-08T00:35:22.795Z,99.90
2019-06-08T00:37:50.934Z,99.90
2019-06-08T00:40:19.024Z,99.90
2019-06-08T00:42:47.137Z,99.90
2019-06-08T00:45:15.732Z,99.90
2019-06-08T00:47:48.142Z,99.90
2019-06-08T00:50:14.124Z,99.90
2019-06-08T00:52:42.505Z,99.90
2019-06-08T00:55:10.497Z,99.90
2019-06-08T00:57:38.952Z,99.90
2019-06-08T01:00:10.900Z,99.90
2019-06-08T01:02:37.539Z,99.90
2019-06-08T01:05:05.671Z,99.90
2019-06-08T01:07:33.837Z,99.90
2019-06-08T01:10:02.364Z,99.90
2019-06-08T01:12:30.345Z,99.90
2019-06-08T01:14:58.410Z,99.90
2019-06-08T01:17:27.474Z,99.90
2019-06-08T01:19:55.866Z,99.90
2019-06-08T01:22:25.621Z,99.90
2019-06-08T01:24:53.708Z,99.90
2019-06-08T01:27:22.095Z,99.90
2019-06-08T01:29:50.268Z,99.90
2019-06-08T01:32:18.148Z,99.90
2019-06-08T01:34:46.183Z,99.90
2019-06-08T01:37:14.094Z,99.90
2019-06-08T01:39:42.385Z,99.90
2019-06-08T01:42:10.364Z,99.90
2019-06-08T01:44:38.708Z,99.90
2019-06-08T01:47:07.042Z,99.90
2019-06-08T01:49:35.124Z,99.90
2019-06-08T01:52:03.379Z,99.90
2019-06-08T01:54:31.670Z,99.90
2019-06-08T01:57:00.140Z,99.90
2019-06-08T01:59:29.497Z,99.90
2019-06-08T02:01:57.693Z,99.90
2019-06-08T02:04:26.075Z,99.90
2019-06-08T02:06:54.199Z,99.90
2019-06-08T02:09:22.730Z,99.90
2019-06-08T02:11:50.642Z,99.90
2019-06-08T02:14:18.644Z,99.90
2019-06-08T02:16:46.578Z,99.90
2019-06-08T02:19:14.668Z,99.90
2019-06-08T02:21:42.618Z,99.90
2019-06-08T02:24:10.776Z,99.90
2019-06-08T02:26:39.727Z,99.90
2019-06-08T02:29:07.815Z,99.90
2019-06-08T02:31:37.745Z,99.90
2019-06-08T02:34:05.786Z,99.90
2019-06-08T02:36:35.375Z,99.90
2019-06-08T02:39:05.438Z,99.90
2019-06-08T02:41:33.325Z,99.90
2019-06-08T02:44:01.399Z,99.90
2019-06-08T02:46:31.025Z,99.90
2019-06-08T02:49:04.169Z,99.90
2019-06-08T02:51:31.266Z,99.90
2019-06-08T02:54:01.067Z,99.90
2019-06-08T02:56:29.990Z,99.90
2019-06-08T02:59:00.645Z,99.90
2019-06-08T03:01:33.603Z,99.90
2019-06-08T03:04:02.086Z,99.90
2019-06-08T03:06:32.224Z,99.90
2019-06-08T03:09:03.026Z,99.90
2019-06-08T03:11:32.640Z,99.90
2019-06-08T03:14:00.697Z,99.90
2019-06-08T03:16:28.860Z,99.90
2019-06-08T03:18:56.709Z,99.90
2019-06-08T03:21:24.620Z,99.90
2019-06-08T03:23:52.473Z,99.90
2019-06-08T03:26:20.394Z,99.90
2019-06-08T03:28:48.619Z,99.90
2019-06-08T03:31:16.993Z,99.90
2019-06-08T03:33:53.191Z,99.90
2019-06-08T03:36:14.768Z,99.90
2019-06-08T03:38:44.503Z,99.90
2019-06-08T03:41:12.668Z,99.90
2019-06-08T03:43:42.254Z,99.90
2019-06-08T03:46:10.530Z,99.90
2019-06-08T03:48:40.072Z,99.90
2019-06-08T03:51:08.326Z,99.90
2019-06-08T03:53:37.727Z,99.90
2019-06-08T03:56:05.953Z,99.90
2019-06-08T03:58:34.428Z,99.90
2019-06-08T04:01:04.042Z,99.90
2019-06-08T04:03:32.091Z,99.90
2019-06-08T04:06:00.008Z,99.90
2019-06-08T04:08:30.794Z,99.90
2019-06-08T04:10:58.814Z,99.90
2019-06-08T04:13:29.740Z,99.90
2019-06-08T04:15:57.685Z,99.90
2019-06-08T04:18:25.607Z,99.90
2019-06-08T04:20:53.605Z,99.90
2019-06-08T04:23:21.488Z,99.90
2019-06-08T04:25:50.595Z,99.90
2019-06-08T04:28:19.000Z,99.90
2019-06-08T04:30:49.770Z,99.90
2019-06-08T04:33:17.407Z,99.90
2019-06-08T04:35:47.058Z,99.90
2019-06-08T04:38:15.384Z,99.90
2019-06-08T04:40:45.689Z,99.90
2019-06-08T04:43:13.941Z,99.90
2019-06-08T04:45:43.494Z,99.90
2019-06-08T04:48:12.336Z,99.90
2019-06-08T04:50:40.882Z,99.90
2019-06-08T04:53:08.926Z,99.90
2019-06-08T04:55:40.974Z,99.90
2019-06-08T04:58:09.511Z,99.90
2019-06-08T05:00:39.051Z,99.90
2019-06-08T05:03:07.668Z,99.90
2019-06-08T05:05:35.624Z,99.90
2019-06-08T05:08:03.888Z,99.90
2019-06-08T05:10:31.858Z,99.90
2019-06-08T05:13:00.139Z,99.90
2019-06-08T05:15:28.258Z,99.90
2019-06-08T05:17:56.111Z,99.90
2019-06-08T05:20:37.641Z,99.90
2019-06-08T05:22:54.053Z,99.90
2019-06-08T05:25:22.234Z,99.90
2019-06-08T05:27:50.350Z,99.90
2019-06-08T05:30:18.818Z,99.90
2019-06-08T05:32:47.619Z,92.00
2019-06-08T05:35:15.558Z,78.60
2019-06-08T05:37:43.732Z,68.30
2019-06-08T05:40:11.794Z,63.30
2019-06-08T05:42:42.045Z,59.90
2019-06-08T05:45:10.261Z,55.00
2019-06-08T05:47:39.667Z,51.20
2019-06-08T05:50:11.644Z,45.00
2019-06-08T05:52:39.928Z,42.10
2019-06-08T05:55:08.493Z,40.30
2019-06-08T05:57:36.411Z,37.50
2019-06-08T06:00:09.075Z,34.10
2019-06-08T06:02:36.111Z,30.40
2019-06-08T06:05:04.995Z,34.00
2019-06-08T06:07:32.945Z,29.80
2019-06-08T06:10:00.836Z,31.80
2019-06-08T06:12:28.978Z,32.00
2019-06-08T06:14:57.109Z,33.20
2019-06-08T06:17:25.158Z,32.00
2019-06-08T06:19:52.972Z,32.50
2019-06-08T06:22:20.904Z,29.30
2019-06-08T06:24:49.725Z,27.70
2019-06-08T06:27:17.762Z,26.10
2019-06-08T06:29:49.986Z,27.20
2019-06-08T06:32:18.253Z,27.10
2019-06-08T06:34:46.255Z,28.20
2019-06-08T06:37:14.513Z,28.10
2019-06-08T06:39:43.971Z,27.40
2019-06-08T06:42:12.030Z,29.90
2019-06-08T06:44:39.944Z,29.40
2019-06-08T06:47:08.189Z,27.90
2019-06-08T06:49:36.226Z,27.60
2019-06-08T06:52:04.286Z,28.70
2019-06-08T06:54:32.973Z,30.90
2019-06-08T06:57:00.907Z,33.40
2019-06-08T06:59:28.916Z,38.10
2019-06-08T07:01:57.723Z,35.10
2019-06-08T07:04:26.063Z,34.10
2019-06-08T07:06:54.476Z,32.30
2019-06-08T07:09:22.469Z,29.60
2019-06-08T07:11:50.971Z,31.10
2019-06-08T07:14:19.785Z,32.30
2019-06-08T07:16:48.009Z,31.90
2019-06-08T07:19:16.049Z,30.40
2019-06-08T07:21:44.297Z,30.10
2019-06-08T07:24:12.263Z,29.30
2019-06-08T07:26:40.270Z,29.40
2019-06-08T07:29:08.984Z,30.00
2019-06-08T07:31:37.605Z,27.50
2019-06-08T07:34:05.583Z,28.90
2019-06-08T07:36:33.712Z,30.60
2019-06-08T07:39:01.620Z,32.80
2019-06-08T07:41:29.949Z,34.20
2019-06-08T07:43:58.559Z,35.00
2019-06-08T07:46:26.800Z,36.10
2019-06-08T07:48:56.421Z,38.80
2019-06-08T07:51:24.570Z,38.50
2019-06-08T07:53:53.577Z,39.40
2019-06-08T07:56:21.691Z,43.70
2019-06-08T07:58:51.444Z,36.90
2019-06-08T08:01:32.899Z,36.30
2019-06-08T08:03:49.947Z,41.80
2019-06-08T08:06:18.312Z,39.80
2019-06-08T08:08:46.446Z,34.40
2019-06-08T08:11:14.470Z,33.90
2019-06-08T08:13:42.462Z,34.00
2019-06-08T08:16:10.501Z,31.80
2019-06-08T08:18:38.519Z,34.00
2019-06-08T08:21:18.847Z,31.50
2019-06-08T08:23:38.258Z,31.10
2019-06-08T08:26:06.366Z,29.20
2019-06-08T08:28:34.388Z,29.30
2019-06-08T08:31:02.430Z,29.30
2019-06-08T08:33:30.348Z,29.30
2019-06-08T08:36:00.594Z,30.00
2019-06-08T08:38:28.653Z,29.20
2019-06-08T08:41:06.219Z,28.50
2019-06-08T08:43:28.010Z,28.30
2019-06-08T08:45:58.690Z,27.90
2019-06-08T08:48:30.916Z,25.70
2019-06-08T08:50:59.383Z,26.00
2019-06-08T08:53:27.977Z,26.20
2019-06-08T08:55:59.673Z,24.80
2019-06-08T08:58:28.062Z,26.80
2019-06-08T09:00:59.477Z,26.70
2019-06-08T09:03:31.004Z,25.70
2019-06-08T09:06:00.051Z,26.00
2019-06-08T09:08:27.760Z,26.00
2019-06-08T09:10:59.802Z,24.70
2019-06-08T09:13:28.124Z,24.70
2019-06-08T09:15:58.495Z,24.90
2019-06-08T09:18:28.620Z,23.50
2019-06-08T09:21:00.408Z,24.10
2019-06-08T09:23:27.985Z,23.00
2019-06-08T09:26:04.220Z,23.10
2019-06-08T09:28:28.533Z,24.10
2019-06-08T09:30:59.017Z,24.50
2019-06-08T09:33:28.640Z,22.50
2019-06-08T09:35:59.918Z,23.70
2019-06-08T09:38:28.711Z,23.60
2019-06-08T09:40:59.822Z,23.90
2019-06-08T09:43:28.899Z,22.70
2019-06-08T09:46:00.523Z,22.30
2019-06-08T09:48:28.867Z,23.40
2019-06-08T09:50:59.845Z,23.20
2019-06-08T09:53:36.918Z,22.10
2019-06-08T09:56:02.360Z,23.10
2019-06-08T09:58:29.098Z,25.30
2019-06-08T10:01:01.223Z,23.60
2019-06-08T10:03:30.754Z,23.80
2019-06-08T10:06:01.583Z,22.10
2019-06-08T10:08:28.417Z,21.30
2019-06-08T10:10:59.486Z,21.70
2019-06-08T10:13:28.004Z,22.60
2019-06-08T10:16:00.052Z,21.20
2019-06-08T10:18:28.528Z,21.60
2019-06-08T10:21:00.436Z,22.60
2019-06-08T10:23:31.879Z,22.60
2019-06-08T10:26:00.353Z,22.80
2019-06-08T10:28:28.998Z,23.00
2019-06-08T10:30:59.683Z,22.10
2019-06-08T10:33:28.197Z,22.30
2019-06-08T10:35:59.131Z,22.30
2019-06-08T10:38:28.934Z,22.10
2019-06-08T10:41:06.519Z,21.70
2019-06-08T10:43:30.324Z,21.20
2019-06-08T10:46:02.869Z,20.50
2019-06-08T10:48:29.801Z,20.70
2019-06-08T10:51:00.446Z,19.90
2019-06-08T10:53:32.637Z,20.00
2019-06-08T10:55:59.795Z,20.10
2019-06-08T10:58:28.742Z,20.60
2019-06-08T11:01:00.116Z,20.60
2019-06-08T11:03:30.438Z,20.60
2019-06-08T11:06:00.474Z,21.10
2019-06-08T11:08:28.412Z,22.00
2019-06-08T11:10:57.896Z,20.20
2019-06-08T11:13:28.271Z,20.20
2019-06-08T11:15:58.670Z,20.50
2019-06-08T11:18:28.708Z,19.70
2019-06-08T11:20:59.755Z,20.30
2019-06-08T11:23:28.756Z,22.00
2019-06-08T11:26:02.970Z,20.00
2019-06-08T11:28:28.283Z,22.60
2019-06-08T11:30:56.653Z,20.30
2019-06-08T11:33:24.705Z,21.00
2019-06-08T11:35:52.726Z,19.50
2019-06-08T11:38:20.814Z,20.50
2019-06-08T11:40:49.164Z,20.50
2019-06-08T11:43:18.321Z,20.30
2019-06-08T11:45:48.034Z,20.60
2019-06-08T11:48:18.221Z,20.30
2019-06-08T11:50:49.084Z,20.00
2019-06-08T11:53:18.215Z,20.20
2019-06-08T11:55:50.708Z,19.40
2019-06-08T11:58:22.539Z,19.50
2019-06-08T12:00:53.799Z,19.30
2019-06-08T12:03:22.148Z,19.80
2019-06-08T12:05:50.918Z,20.00
2019-06-08T12:08:20.930Z,19.60
2019-06-08T12:10:49.260Z,19.80
2019-06-08T12:13:17.854Z,20.30
2019-06-08T12:15:48.789Z,20.80
2019-06-08T12:18:18.136Z,21.50
2019-06-08T12:20:48.678Z,19.70
2019-06-08T12:23:16.143Z,19.70
2019-06-08T12:25:44.146Z,19.70
2019-06-08T12:28:12.677Z,21.20
2019-06-08T12:30:40.715Z,20.00
2019-06-08T12:33:09.799Z,21.90
2019-06-08T12:35:38.621Z,20.70
2019-06-08T12:38:09.586Z,20.20
2019-06-08T12:40:38.324Z,19.50
2019-06-08T12:43:09.391Z,19.70
2019-06-08T12:45:38.101Z,20.30
2019-06-08T12:48:08.839Z,19.50
2019-06-08T12:50:38.699Z,19.90
2019-06-08T12:53:12.431Z,19.50
2019-06-08T12:55:37.754Z,18.70
2019-06-08T12:58:08.149Z,19.10
2019-06-08T13:00:38.122Z,19.80
2019-06-08T13:03:08.630Z,19.30
2019-06-08T13:05:37.952Z,17.90
2019-06-08T13:08:08.408Z,18.50
2019-06-08T13:10:38.207Z,19.90
2019-06-08T13:13:08.456Z,20.20
2019-06-08T13:15:38.474Z,19.60
2019-06-08T13:18:08.530Z,19.80
2019-06-08T13:20:38.933Z,19.30
2019-06-08T13:23:08.689Z,19.10
2019-06-08T13:25:40.984Z,18.80
2019-06-08T13:28:08.801Z,19.10
2019-06-08T13:30:39.846Z,18.80
2019-06-08T13:33:08.202Z,19.70
2019-06-08T13:35:39.235Z,19.40
2019-06-08T13:38:08.502Z,19.40
2019-06-08T13:40:39.811Z,18.90
2019-06-08T13:43:08.163Z,18.80
2019-06-08T13:45:39.089Z,18.70
2019-06-08T13:48:08.712Z,19.30
2019-06-08T13:50:36.659Z,18.80
2019-06-08T13:53:05.003Z,19.60
2019-06-08T13:55:48.569Z,19.80
2019-06-08T13:58:02.807Z,19.30
2019-06-08T14:00:35.168Z,19.30
2019-06-08T14:03:08.247Z,18.40
2019-06-08T14:05:38.526Z,19.80
2019-06-08T14:08:10.587Z,19.10
2019-06-08T14:10:38.858Z,19.30
2019-06-08T14:13:07.663Z,19.50
2019-06-08T14:15:37.952Z,20.10
2019-06-08T14:18:08.487Z,19.10
2019-06-08T14:20:38.660Z,19.20
2019-06-08T14:23:08.708Z,19.40
2019-06-08T14:25:49.741Z,20.30
2019-06-08T14:28:06.538Z,19.80
2019-06-08T14:30:34.600Z,18.80
2019-06-08T14:33:03.400Z,18.80
2019-06-08T14:35:31.291Z,19.20
2019-06-08T14:37:59.393Z,19.80
2019-06-08T14:40:31.044Z,19.70
2019-06-08T14:42:58.078Z,19.40
2019-06-08T14:45:29.005Z,19.50
2019-06-08T14:47:58.591Z,19.00
2019-06-08T14:50:29.271Z,19.40
2019-06-08T14:52:58.867Z,19.70
2019-06-08T14:55:45.672Z,19.50
2019-06-08T14:58:13.583Z,19.00
2019-06-08T15:00:41.468Z,19.10
2019-06-08T15:03:09.418Z,19.50
2019-06-08T15:05:37.370Z,19.30
2019-06-08T15:08:08.146Z,20.40
2019-06-08T15:10:35.460Z,20.00
2019-06-08T15:13:03.717Z,19.50
2019-06-08T15:15:32.270Z,19.40
2019-06-08T15:18:00.302Z,19.70
2019-06-08T15:20:28.709Z,20.30
2019-06-08T15:22:57.950Z,19.00
2019-06-08T15:25:27.394Z,19.60
2019-06-08T15:27:58.176Z,19.90
2019-06-08T15:30:29.439Z,19.10
2019-06-08T15:32:58.435Z,19.80
2019-06-08T15:35:27.141Z,19.00
2019-06-08T15:37:58.168Z,18.90
2019-06-08T15:40:25.863Z,19.30
2019-06-08T15:42:53.885Z,19.70
2019-06-08T15:45:22.213Z,19.60
2019-06-08T15:47:50.432Z,19.50
2019-06-08T15:50:18.580Z,19.20
2019-06-08T15:52:48.176Z,19.20
2019-06-08T15:55:19.359Z,19.10
2019-06-08T15:57:47.935Z,19.00
2019-06-08T16:00:18.482Z,19.40
2019-06-08T16:02:47.105Z,19.00
2019-06-08T16:05:15.119Z,19.10
2019-06-08T16:07:43.166Z,19.30
2019-06-08T16:10:11.498Z,19.40
2019-06-08T16:12:39.463Z,19.00
2019-06-08T16:15:08.155Z,19.40
2019-06-08T16:17:36.186Z,19.20
2019-06-08T16:20:05.493Z,19.20
2019-06-08T16:22:33.899Z,19.30
2019-06-08T16:25:02.282Z,19.50
2019-06-08T16:27:30.157Z,19.00
2019-06-08T16:29:58.226Z,19.10
2019-06-08T16:32:27.336Z,19.20
2019-06-08T16:34:55.483Z,19.80
2019-06-08T16:37:23.491Z,19.40
2019-06-08T16:39:51.467Z,19.60
2019-06-08T16:42:19.514Z,19.90
2019-06-08T16:44:48.116Z,19.00
2019-06-08T16:47:16.004Z,19.40
2019-06-08T16:49:44.091Z,19.20
2019-06-08T16:52:12.093Z,19.60
2019-06-08T16:54:40.659Z,19.70
2019-06-08T16:57:10.542Z,18.60
2019-06-08T16:59:38.861Z,18.90
2019-06-08T17:02:08.333Z,19.60
2019-06-08T17:04:37.191Z,18.80
2019-06-08T17:07:05.677Z,18.60
2019-06-08T17:09:34.264Z,18.80
2019-06-08T17:12:08.006Z,18.60
2019-06-08T17:14:36.394Z,19.20
2019-06-08T17:17:04.533Z,18.80
2019-06-08T17:19:36.157Z,18.70
2019-06-08T17:22:04.566Z,18.70
2019-06-08T17:24:32.593Z,18.40
2019-06-08T17:27:00.510Z,19.00
2019-06-08T17:29:28.442Z,18.80
2019-06-08T17:31:56.919Z,19.20
2019-06-08T17:34:24.940Z,19.30
2019-06-08T17:36:53.106Z,19.20
2019-06-08T17:39:21.239Z,19.20
2019-06-08T17:41:49.797Z,19.10
2019-06-08T17:44:17.930Z,19.10
2019-06-08T17:46:46.418Z,20.10
2019-06-08T17:49:14.658Z,19.50
2019-06-08T17:51:44.422Z,20.40
2019-06-08T17:54:12.632Z,19.90
2019-06-08T17:56:41.249Z,19.70
2019-06-08T17:59:09.579Z,19.90
2019-06-08T18:01:39.503Z,19.80
2019-06-08T18:04:08.147Z,19.60
2019-06-08T18:06:39.706Z,20.00
2019-06-08T18:09:08.394Z,19.70
2019-06-08T18:11:40.125Z,20.30
2019-06-08T18:14:08.155Z,21.40
2019-06-08T18:16:39.457Z,20.80
2019-06-08T18:19:24.137Z,20.80
2019-06-08T18:21:52.954Z,21.10
2019-06-08T18:24:21.207Z,22.90
2019-06-08T18:26:49.760Z,21.20
2019-06-08T18:29:18.215Z,21.50
2019-06-08T18:31:48.107Z,21.40
2019-06-08T18:34:17.776Z,22.70
2019-06-08T18:36:47.981Z,22.80
2019-06-08T18:39:18.337Z,22.20
2019-06-08T18:41:48.381Z,23.30
2019-06-08T18:44:17.387Z,23.40
2019-06-08T18:46:45.423Z,23.80
2019-06-08T18:49:13.359Z,23.40
2019-06-08T18:51:42.810Z,24.30
2019-06-08T18:54:14.884Z,23.80
2019-06-08T18:56:43.379Z,24.90
2019-06-08T18:59:11.966Z,25.00
2019-06-08T19:01:41.607Z,24.90
2019-06-08T19:04:09.955Z,24.90
2019-06-08T19:06:40.543Z,26.80
2019-06-08T19:09:12.158Z,27.10
2019-06-08T19:11:39.433Z,28.60
2019-06-08T19:14:09.381Z,30.60
2019-06-08T19:16:40.900Z,28.90
2019-06-08T19:19:07.538Z,28.00
2019-06-08T19:21:37.498Z,27.70
2019-06-08T19:24:09.593Z,28.60
2019-06-08T19:26:39.371Z,28.10
2019-06-08T19:29:07.690Z,28.60
2019-06-08T19:31:38.604Z,28.80
2019-06-08T19:34:07.493Z,29.00
2019-06-08T19:36:35.438Z,30.00
2019-06-08T19:39:07.119Z,30.50
2019-06-08T19:41:37.628Z,30.00
2019-06-08T19:44:07.418Z,32.70
2019-06-08T19:46:35.500Z,34.60
2019-06-08T19:49:03.833Z,34.90
2019-06-08T19:51:31.797Z,35.70
2019-06-08T19:54:00.412Z,37.20
2019-06-08T19:56:28.896Z,37.80
2019-06-08T19:59:03.873Z,39.20
2019-06-08T20:01:27.877Z,44.90
2019-06-08T20:04:00.691Z,45.30
2019-06-08T20:06:27.920Z,45.80
2019-06-08T20:08:57.523Z,52.60
2019-06-08T20:11:26.073Z,56.10
2019-06-08T20:13:54.297Z,59.20
2019-06-08T20:16:22.750Z,55.50
2019-06-08T20:18:51.694Z,58.70
2019-06-08T20:21:20.992Z,60.50
2019-06-08T20:23:50.791Z,61.50
2019-06-08T20:26:19.396Z,62.90
2019-06-08T20:28:51.196Z,62.30
2019-06-08T20:31:18.087Z,61.90
2019-06-08T20:33:48.162Z,61.60
2019-06-08T20:36:17.533Z,62.50
2019-06-08T20:38:46.391Z,60.90
2019-06-08T20:41:15.466Z,60.80
2019-06-08T20:43:44.573Z,61.00
2019-06-08T20:46:12.659Z,61.30
2019-06-08T20:48:48.426Z,60.60
2019-06-08T20:51:17.264Z,66.40
2019-06-08T20:53:47.840Z,64.30
2019-06-08T20:56:17.405Z,66.00
2019-06-08T20:58:48.046Z,66.00
2019-06-08T21:01:17.871Z,71.70
2019-06-08T21:03:48.162Z,72.50
2019-06-08T21:06:17.121Z,68.70
2019-06-08T21:08:46.582Z,66.40
2019-06-08T21:11:17.497Z,68.80
2019-06-08T21:13:47.341Z,67.60
2019-06-08T21:16:18.075Z,66.50
2019-06-08T21:18:46.756Z,66.50
2019-06-08T21:21:17.435Z,71.20
2019-06-08T21:23:47.098Z,72.80
2019-06-08T21:26:15.187Z,77.50
2019-06-08T21:28:43.289Z,88.30
2019-06-08T21:31:11.674Z,91.50
2019-06-08T21:33:39.580Z,91.00
2019-06-08T21:36:08.731Z,92.50
2019-06-08T21:38:37.721Z,95.90
2019-06-08T21:41:08.101Z,99.90
2019-06-08T21:43:37.413Z,99.90
2019-06-08T21:46:07.790Z,99.90
2019-06-08T21:48:38.162Z,99.90
2019-06-08T21:51:08.238Z,99.90
2019-06-08T21:53:38.215Z,99.90
2019-06-08T21:56:07.900Z,99.90
2019-06-08T21:58:37.836Z,99.90
2019-06-08T22:01:07.356Z,99.90
2019-06-08T22:03:37.904Z,99.90
2019-06-08T22:06:07.844Z,99.90
2019-06-08T22:08:37.550Z,99.90
2019-06-08T22:11:07.918Z,99.90
2019-06-08T22:13:37.402Z,99.90
2019-06-08T22:16:08.187Z,99.90
2019-06-08T22:18:35.253Z,99.90
2019-06-08T22:21:05.000Z,99.90
2019-06-08T22:23:33.107Z,99.90
2019-06-08T22:26:02.061Z,99.90
2019-06-08T22:28:30.248Z,99.90
2019-06-08T22:31:01.086Z,99.90
2019-06-08T22:33:28.365Z,99.90
2019-06-08T22:35:58.533Z,99.90
2019-06-08T22:38:26.545Z,99.90
2019-06-08T22:40:57.306Z,99.90
2019-06-08T22:43:25.269Z,99.90
2019-06-08T22:45:54.427Z,99.90
2019-06-08T22:48:22.974Z,99.90
2019-06-08T22:50:53.308Z,99.90
2019-06-08T22:53:21.432Z,99.90
2019-06-08T22:55:49.791Z,99.90
2019-06-08T22:58:19.004Z,99.90
2019-06-08T23:00:52.546Z,99.90
2019-06-08T23:03:18.434Z,99.90
2019-06-08T23:05:47.723Z,99.90
2019-06-08T23:08:17.605Z,99.90
2019-06-08T23:10:48.095Z,99.90
2019-06-08T23:13:17.915Z,99.90
2019-06-08T23:15:47.966Z,99.90
2019-06-08T23:18:17.959Z,99.90
2019-06-08T23:20:47.947Z,99.90
2019-06-08T23:23:17.904Z,99.90
2019-06-08T23:25:47.906Z,99.90
2019-06-08T23:28:18.145Z,99.90
2019-06-08T23:30:47.770Z,99.90
2019-06-08T23:33:18.885Z,99.90
2019-06-08T23:36:27.414Z,99.90
2019-06-08T23:38:17.343Z,99.90
2019-06-08T23:40:47.442Z,99.90
2019-06-08T23:43:18.091Z,99.90
2019-06-08T23:45:47.469Z,99.90
2019-06-08T23:48:17.321Z,99.90
2019-06-08T23:50:47.475Z,99.90
2019-06-08T23:53:18.222Z,99.90
2019-06-08T23:55:47.964Z,99.90
2019-06-08T23:58:17.472Z,99.90
